Airfield :
LOGIN :

Register | Disclaimer

   EN    FR    IT 

 










Legend :    VFR   Marginal VFR   IFR   Intensive IFR   Very Intensive IFR
Visi :
Ceiling :
>= 8 km
>= 3000ft
5 to 8 km
1000 to 3000 ft
1500m to 5 km
500 to 1000 ft
800 to 1500m
200 to 500 ft
< 800m
< 200 ft
Symbols :   Thunderstorms  Fog  Heavy snow  Heavy precipitations  Wind > 20 kt
SIGMETs :     Misc.  Thunderstorms  Icing  Turbulence  Mountain Waves  Volcanic Ashes







- Airport Elevation : 978 ft
- IATA code : LNZ


LOWL - Linz

CURRENT METAR :
  • 171420Z 03005KT 360V060 9999 FEW020 SCT028 BKN046 M03/M07 Q1031 R08/490195 NOSIG

EXPIRED METARs :
  • 171350Z 04008KT 9999 FEW020 SCT028 BKN040 M03/M07 Q1031 R08/490195 NOSIG
  • 171320Z 04007KT 9999 -SHSN FEW020 SCT028 BKN040 M03/M07 Q1031 R08/490195 NOSIG
  • 171250Z 04007KT 360V060 9999 FEW024 SCT030 BKN044 M03/M08 Q1031 R08/490195 NOSIG
  • 171220Z 03007KT 9999 FEW034 SCT042 BKN048 M02/M08 Q1031 R08/490195 NOSIG
  • 171150Z 02006KT 9999 FEW024 BKN050 M02/M08 Q1031 R08/490195 NOSIG

TAF TAF LOWL
Valid from the 17 at 12:00 until the 18 at 12:00 UTC


171115Z 1712/1812 05006KT 9999 SCT030 BKN050 TXM02/1712Z TNM07/1806Z
No reported NOTAMs for that airfield.



MET'MAP, your aeronautical weather chart ! - Copyright ORBIFLY December 2007 - Disclaimer

ORBIFLY MET'MAP TEAM :

Programming & Development : Alexandra Zaïnal
Concept & Development : Baudouin d'Aumeries
Co-Development & Prog : Marc-Olivier Méhu
Technical & hardware support : Manuel Goepfert

Contact : metmap@orbifly.com




SOURCES & CREDITS :

   NOAA